sensor_id;sensor_type;location;lat;lon;timestamp;pressure;altitude;pressure_sealevel;temperature;humidity
70302;BME280;57706;56.326;43.882;2023-05-25T00:02:10;64144.13;;;-146.12;100.00
70302;BME280;57706;56.326;43.882;2023-05-25T00:04:40;64144.13;;;-146.12;100.00
70302;BME280;57706;56.326;43.882;2023-05-25T00:07:07;64144.13;;;-146.12;100.00
70302;BME280;57706;56.326;43.882;2023-05-25T00:09:33;64144.13;;;-146.12;100.00
70302;BME280;57706;56.326;43.882;2023-05-25T00:12:00;64144.13;;;-146.12;100.00
70302;BME280;57706;56.326;43.882;2023-05-25T00:14:26;64144.13;;;-146.12;100.00
70302;BME280;57706;56.326;43.882;2023-05-25T00:16:52;64144.13;;;-146.12;100.00
70302;BME280;57706;56.326;43.882;2023-05-25T00:19:19;64144.13;;;-146.12;100.00
70302;BME280;57706;56.326;43.882;2023-05-25T00:21:45;64144.13;;;-146.12;100.00
70302;BME280;57706;56.326;43.882;2023-05-25T00:24:13;64144.13;;;-146.12;100.00
70302;BME280;57706;56.326;43.882;2023-05-25T00:26:39;64144.13;;;-146.12;100.00
70302;BME280;57706;56.326;43.882;2023-05-25T00:29:06;64144.13;;;-146.12;100.00
70302;BME280;57706;56.326;43.882;2023-05-25T00:31:32;64144.13;;;-146.12;100.00
70302;BME280;57706;56.326;43.882;2023-05-25T00:34:00;64144.13;;;-146.12;100.00
70302;BME280;57706;56.326;43.882;2023-05-25T00:36:26;64144.13;;;-146.12;100.00
70302;BME280;57706;56.326;43.882;2023-05-25T00:38:52;64144.13;;;-146.12;100.00
70302;BME280;57706;56.326;43.882;2023-05-25T00:41:19;64144.13;;;-146.12;100.00
70302;BME280;57706;56.326;43.882;2023-05-25T00:43:45;64144.13;;;-146.12;100.00
70302;BME280;57706;56.326;43.882;2023-05-25T00:46:15;101032.19;;;16.93;100.00
70302;BME280;57706;56.326;43.882;2023-05-25T00:48:44;64144.13;;;-146.12;100.00
70302;BME280;57706;56.326;43.882;2023-05-25T00:51:13;101029.03;;;17.05;100.00
70302;BME280;57706;56.326;43.882;2023-05-25T00:53:42;101025.94;;;17.01;100.00
70302;BME280;57706;56.326;43.882;2023-05-25T00:56:18;64144.13;;;-146.12;100.00
70302;BME280;57706;56.326;43.882;2023-05-25T00:58:50;64144.13;;;-146.12;100.00
70302;BME280;57706;56.326;43.882;2023-05-25T01:01:20;64144.13;;;-146.12;100.00
70302;BME280;57706;56.326;43.882;2023-05-25T01:03:48;64144.13;;;-146.12;100.00
70302;BME280;57706;56.326;43.882;2023-05-25T01:06:19;64144.13;;;-146.12;100.00
70302;BME280;57706;56.326;43.882;2023-05-25T01:08:51;67802.00;;;17.26;79.52
70302;BME280;57706;56.326;43.882;2023-05-25T01:11:32;64144.13;;;-146.12;100.00
70302;BME280;57706;56.326;43.882;2023-05-25T01:14:01;64144.13;;;-146.12;100.00
70302;BME280;57706;56.326;43.882;2023-05-25T01:16:28;64144.13;;;-146.12;100.00
70302;BME280;57706;56.326;43.882;2023-05-25T01:19:00;64144.13;;;-146.12;100.00
70302;BME280;57706;56.326;43.882;2023-05-25T01:21:49;64144.13;;;-146.12;100.00
70302;BME280;57706;56.326;43.882;2023-05-25T01:27:15;64144.13;;;-146.12;100.00
70302;BME280;57706;56.326;43.882;2023-05-25T01:29:44;101016.44;;;17.36;100.00
70302;BME280;57706;56.326;43.882;2023-05-25T01:32:12;101024.66;;;17.41;100.00
70302;BME280;57706;56.326;43.882;2023-05-25T01:34:40;64144.13;;;-146.12;100.00
70302;BME280;57706;56.326;43.882;2023-05-25T01:37:07;64144.13;;;-146.12;100.00
70302;BME280;57706;56.326;43.882;2023-05-25T01:39:35;64144.13;;;-146.12;100.00
70302;BME280;57706;56.326;43.882;2023-05-25T01:42:01;64144.13;;;-146.12;100.00
70302;BME280;57706;56.326;43.882;2023-05-25T01:44:27;64144.13;;;-146.12;100.00
70302;BME280;57706;56.326;43.882;2023-05-25T01:47:03;64144.13;;;-146.12;100.00
70302;BME280;57706;56.326;43.882;2023-05-25T01:49:42;64144.13;;;-146.12;100.00
70302;BME280;57706;56.326;43.882;2023-05-25T01:52:18;64144.13;;;-146.12;100.00
70302;BME280;57706;56.326;43.882;2023-05-25T01:54:51;64144.13;;;-146.12;100.00
70302;BME280;57706;56.326;43.882;2023-05-25T01:57:19;64144.13;;;-146.12;100.00
70302;BME280;57706;56.326;43.882;2023-05-25T01:59:46;64144.13;;;-146.12;100.00
70302;BME280;57706;56.326;43.882;2023-05-25T02:02:16;64144.13;;;-146.12;100.00
70302;BME280;57706;56.326;43.882;2023-05-25T02:04:44;64144.13;;;-146.12;100.00
70302;BME280;57706;56.326;43.882;2023-05-25T02:07:11;64144.13;;;-146.12;100.00
70302;BME280;57706;56.326;43.882;2023-05-25T02:09:37;64144.13;;;-146.12;100.00
70302;BME280;57706;56.326;43.882;2023-05-25T02:12:03;64144.13;;;-146.12;100.00
70302;BME280;57706;56.326;43.882;2023-05-25T02:14:29;64144.13;;;-146.12;100.00
70302;BME280;57706;56.326;43.882;2023-05-25T02:16:55;64144.13;;;-146.12;100.00
70302;BME280;57706;56.326;43.882;2023-05-25T02:19:22;100990.44;;;18.37;100.00
70302;BME280;57706;56.326;43.882;2023-05-25T02:21:48;100992.50;;;18.55;100.00
70302;BME280;57706;56.326;43.882;2023-05-25T02:24:14;100996.03;;;18.62;100.00
70302;BME280;57706;56.326;43.882;2023-05-25T02:26:40;100997.47;;;18.71;100.00
70302;BME280;57706;56.326;43.882;2023-05-25T02:29:07;100990.53;;;18.84;100.00
70302;BME280;57706;56.326;43.882;2023-05-25T02:31:33;100990.97;;;18.81;100.00
70302;BME280;57706;56.326;43.882;2023-05-25T02:34:00;64144.13;;;-146.12;100.00
70302;BME280;57706;56.326;43.882;2023-05-25T02:36:26;64144.13;;;-146.12;100.00
70302;BME280;57706;56.326;43.882;2023-05-25T02:38:53;64144.13;;;-146.12;100.00
70302;BME280;57706;56.326;43.882;2023-05-25T02:41:19;64144.13;;;-146.12;100.00
70302;BME280;57706;56.326;43.882;2023-05-25T02:43:46;64144.13;;;-146.12;100.00
70302;BME280;57706;56.326;43.882;2023-05-25T02:46:12;64144.13;;;-146.12;100.00
70302;BME280;57706;56.326;43.882;2023-05-25T02:48:38;64144.13;;;-146.12;100.00
70302;BME280;57706;56.326;43.882;2023-05-25T02:51:04;64144.13;;;-146.12;100.00
70302;BME280;57706;56.326;43.882;2023-05-25T02:53:30;64144.13;;;-146.12;100.00
70302;BME280;57706;56.326;43.882;2023-05-25T02:55:55;64144.13;;;-146.12;100.00
70302;BME280;57706;56.326;43.882;2023-05-25T02:58:26;64144.13;;;-146.12;100.00
70302;BME280;57706;56.326;43.882;2023-05-25T03:01:04;64144.13;;;-146.12;100.00
70302;BME280;57706;56.326;43.882;2023-05-25T03:03:36;64144.13;;;-146.12;100.00
70302;BME280;57706;56.326;43.882;2023-05-25T03:06:02;64144.13;;;-146.12;100.00
70302;BME280;57706;56.326;43.882;2023-05-25T03:08:31;64144.13;;;-146.12;100.00
70302;BME280;57706;56.326;43.882;2023-05-25T03:10:58;64144.13;;;-146.12;100.00
70302;BME280;57706;56.326;43.882;2023-05-25T03:13:25;64144.13;;;-146.12;100.00
70302;BME280;57706;56.326;43.882;2023-05-25T03:15:51;64144.13;;;-146.12;100.00
70302;BME280;57706;56.326;43.882;2023-05-25T03:18:17;64144.13;;;-146.12;100.00
70302;BME280;57706;56.326;43.882;2023-05-25T03:20:43;64144.13;;;-146.12;100.00
70302;BME280;57706;56.326;43.882;2023-05-25T03:23:10;64144.13;;;-146.12;100.00
70302;BME280;57706;56.326;43.882;2023-05-25T03:25:38;64144.13;;;-146.12;100.00
70302;BME280;57706;56.326;43.882;2023-05-25T03:28:04;64144.13;;;-146.12;100.00
70302;BME280;57706;56.326;43.882;2023-05-25T03:30:30;64144.13;;;-146.12;100.00
70302;BME280;57706;56.326;43.882;2023-05-25T03:32:56;64144.13;;;-146.12;100.00
70302;BME280;57706;56.326;43.882;2023-05-25T03:35:24;64144.13;;;-146.12;100.00
70302;BME280;57706;56.326;43.882;2023-05-25T03:37:50;64144.13;;;-146.12;100.00
70302;BME280;57706;56.326;43.882;2023-05-25T03:40:16;64144.13;;;-146.12;100.00
70302;BME280;57706;56.326;43.882;2023-05-25T03:42:42;64144.13;;;-146.12;100.00
70302;BME280;57706;56.326;43.882;2023-05-25T03:45:09;64144.13;;;-146.12;100.00
70302;BME280;57706;56.326;43.882;2023-05-25T03:47:36;64144.13;;;-146.12;100.00
70302;BME280;57706;56.326;43.882;2023-05-25T03:50:05;64144.13;;;-146.12;100.00
70302;BME280;57706;56.326;43.882;2023-05-25T03:52:32;64144.13;;;-146.12;100.00
70302;BME280;57706;56.326;43.882;2023-05-25T03:54:58;64144.13;;;-146.12;100.00
70302;BME280;57706;56.326;43.882;2023-05-25T03:57:26;64144.13;;;-146.12;100.00
70302;BME280;57706;56.326;43.882;2023-05-25T03:59:53;64144.13;;;-146.12;100.00
70302;BME280;57706;56.326;43.882;2023-05-25T04:02:19;64144.13;;;-146.12;100.00
70302;BME280;57706;56.326;43.882;2023-05-25T04:04:45;64144.13;;;-146.12;100.00
70302;BME280;57706;56.326;43.882;2023-05-25T04:07:11;64144.13;;;-146.12;100.00
70302;BME280;57706;56.326;43.882;2023-05-25T04:09:37;64144.13;;;-146.12;100.00
70302;BME280;57706;56.326;43.882;2023-05-25T04:12:03;64144.13;;;-146.12;100.00
70302;BME280;57706;56.326;43.882;2023-05-25T04:14:29;64144.13;;;-146.12;100.00
70302;BME280;57706;56.326;43.882;2023-05-25T04:16:56;64144.13;;;-146.12;100.00
70302;BME280;57706;56.326;43.882;2023-05-25T04:19:22;64144.13;;;-146.12;100.00
70302;BME280;57706;56.326;43.882;2023-05-25T04:21:48;64144.13;;;-146.12;100.00
70302;BME280;57706;56.326;43.882;2023-05-25T04:24:15;64144.13;;;-146.12;100.00
70302;BME280;57706;56.326;43.882;2023-05-25T04:26:41;64144.13;;;-146.12;100.00
70302;BME280;57706;56.326;43.882;2023-05-25T04:29:08;64144.13;;;-146.12;100.00
70302;BME280;57706;56.326;43.882;2023-05-25T04:31:50;64144.13;;;-146.12;100.00
70302;BME280;57706;56.326;43.882;2023-05-25T04:34:31;64144.13;;;-146.12;100.00
70302;BME280;57706;56.326;43.882;2023-05-25T04:37:18;64144.13;;;-146.12;100.00
70302;BME280;57706;56.326;43.882;2023-05-25T04:39:46;64144.13;;;-146.12;100.00
70302;BME280;57706;56.326;43.882;2023-05-25T04:42:12;64144.13;;;-146.12;100.00
70302;BME280;57706;56.326;43.882;2023-05-25T04:44:39;64144.13;;;-146.12;100.00
70302;BME280;57706;56.326;43.882;2023-05-25T04:47:05;64144.13;;;-146.12;100.00
70302;BME280;57706;56.326;43.882;2023-05-25T04:49:33;64144.13;;;-146.12;100.00
70302;BME280;57706;56.326;43.882;2023-05-25T04:51:59;64144.13;;;-146.12;100.00
70302;BME280;57706;56.326;43.882;2023-05-25T04:54:28;64144.13;;;-146.12;100.00
70302;BME280;57706;56.326;43.882;2023-05-25T04:56:57;64144.13;;;-146.12;100.00
70302;BME280;57706;56.326;43.882;2023-05-25T04:59:22;64144.13;;;-146.12;100.00
70302;BME280;57706;56.326;43.882;2023-05-25T05:01:48;64144.13;;;-146.12;100.00
70302;BME280;57706;56.326;43.882;2023-05-25T05:04:16;64144.13;;;-146.12;100.00
70302;BME280;57706;56.326;43.882;2023-05-25T05:06:43;64144.13;;;-146.12;100.00
70302;BME280;57706;56.326;43.882;2023-05-25T05:09:15;64144.13;;;-146.12;100.00
70302;BME280;57706;56.326;43.882;2023-05-25T05:11:41;64144.13;;;-146.12;100.00
70302;BME280;57706;56.326;43.882;2023-05-25T05:14:07;64144.13;;;-146.12;100.00
70302;BME280;57706;56.326;43.882;2023-05-25T05:16:33;64144.13;;;-146.12;100.00
70302;BME280;57706;56.326;43.882;2023-05-25T05:19:00;64144.13;;;-146.12;100.00
70302;BME280;57706;56.326;43.882;2023-05-25T05:21:27;64144.13;;;-146.12;100.00
70302;BME280;57706;56.326;43.882;2023-05-25T05:23:52;64144.13;;;-146.12;100.00
70302;BME280;57706;56.326;43.882;2023-05-25T05:26:18;64144.13;;;-146.12;100.00
70302;BME280;57706;56.326;43.882;2023-05-25T05:28:46;64144.13;;;-146.12;100.00
70302;BME280;57706;56.326;43.882;2023-05-25T05:31:12;64144.13;;;-146.12;100.00
70302;BME280;57706;56.326;43.882;2023-05-25T05:33:39;64144.13;;;-146.12;100.00
70302;BME280;57706;56.326;43.882;2023-05-25T05:36:05;64144.13;;;-146.12;100.00
70302;BME280;57706;56.326;43.882;2023-05-25T05:38:33;64144.13;;;-146.12;100.00
70302;BME280;57706;56.326;43.882;2023-05-25T05:40:58;64144.13;;;-146.12;100.00
70302;BME280;57706;56.326;43.882;2023-05-25T05:43:26;64144.13;;;-146.12;100.00
70302;BME280;57706;56.326;43.882;2023-05-25T05:45:52;64144.13;;;-146.12;100.00
70302;BME280;57706;56.326;43.882;2023-05-25T05:48:17;64144.13;;;-146.12;100.00
70302;BME280;57706;56.326;43.882;2023-05-25T05:50:44;64144.13;;;-146.12;100.00
70302;BME280;57706;56.326;43.882;2023-05-25T05:53:12;64144.13;;;-146.12;100.00
70302;BME280;57706;56.326;43.882;2023-05-25T05:55:38;64144.13;;;-146.12;100.00
70302;BME280;57706;56.326;43.882;2023-05-25T05:58:04;64144.13;;;-146.12;100.00
70302;BME280;57706;56.326;43.882;2023-05-25T06:00:30;64144.13;;;-146.12;100.00
70302;BME280;57706;56.326;43.882;2023-05-25T06:02:55;64144.13;;;-146.12;100.00
70302;BME280;57706;56.326;43.882;2023-05-25T06:05:24;64144.13;;;-146.12;100.00
70302;BME280;57706;56.326;43.882;2023-05-25T06:07:52;64144.13;;;-146.12;100.00
70302;BME280;57706;56.326;43.882;2023-05-25T06:10:20;64144.13;;;-146.12;100.00
70302;BME280;57706;56.326;43.882;2023-05-25T06:12:46;64144.13;;;-146.12;100.00
70302;BME280;57706;56.326;43.882;2023-05-25T06:15:11;64144.13;;;-146.12;100.00
70302;BME280;57706;56.326;43.882;2023-05-25T06:17:39;64144.13;;;-146.12;100.00
70302;BME280;57706;56.326;43.882;2023-05-25T06:20:05;64144.13;;;-146.12;100.00
70302;BME280;57706;56.326;43.882;2023-05-25T06:22:31;64144.13;;;-146.12;100.00
70302;BME280;57706;56.326;43.882;2023-05-25T06:24:58;64144.13;;;-146.12;100.00
70302;BME280;57706;56.326;43.882;2023-05-25T06:27:24;64144.13;;;-146.12;100.00
70302;BME280;57706;56.326;43.882;2023-05-25T06:29:50;64144.13;;;-146.12;100.00
70302;BME280;57706;56.326;43.882;2023-05-25T06:32:16;64144.13;;;-146.12;100.00
70302;BME280;57706;56.326;43.882;2023-05-25T06:34:42;64144.13;;;-146.12;100.00
70302;BME280;57706;56.326;43.882;2023-05-25T06:37:08;64144.13;;;-146.12;100.00
70302;BME280;57706;56.326;43.882;2023-05-25T06:39:35;64144.13;;;-146.12;100.00
70302;BME280;57706;56.326;43.882;2023-05-25T06:42:01;64144.13;;;-146.12;100.00
70302;BME280;57706;56.326;43.882;2023-05-25T06:44:30;64144.13;;;-146.12;100.00
70302;BME280;57706;56.326;43.882;2023-05-25T06:47:00;64144.13;;;-146.12;100.00
70302;BME280;57706;56.326;43.882;2023-05-25T06:49:27;64144.13;;;-146.12;100.00
70302;BME280;57706;56.326;43.882;2023-05-25T06:51:53;64144.13;;;-146.12;100.00
70302;BME280;57706;56.326;43.882;2023-05-25T06:54:19;64144.13;;;-146.12;100.00
70302;BME280;57706;56.326;43.882;2023-05-25T06:56:45;64144.13;;;-146.12;100.00
70302;BME280;57706;56.326;43.882;2023-05-25T06:59:11;64144.13;;;-146.12;100.00
70302;BME280;57706;56.326;43.882;2023-05-25T07:01:37;64144.13;;;-146.12;100.00
70302;BME280;57706;56.326;43.882;2023-05-25T07:04:03;64144.13;;;-146.12;100.00
70302;BME280;57706;56.326;43.882;2023-05-25T07:06:28;64144.13;;;-146.12;100.00
70302;BME280;57706;56.326;43.882;2023-05-25T07:08:55;64144.13;;;-146.12;100.00
70302;BME280;57706;56.326;43.882;2023-05-25T07:11:20;64144.13;;;-146.12;100.00
70302;BME280;57706;56.326;43.882;2023-05-25T07:13:47;64144.13;;;-146.12;100.00
70302;BME280;57706;56.326;43.882;2023-05-25T07:16:13;64144.13;;;-146.12;100.00
70302;BME280;57706;56.326;43.882;2023-05-25T07:18:39;64144.13;;;-146.12;100.00
70302;BME280;57706;56.326;43.882;2023-05-25T07:21:06;64144.13;;;-146.12;100.00
70302;BME280;57706;56.326;43.882;2023-05-25T07:23:37;64144.13;;;-146.12;100.00
70302;BME280;57706;56.326;43.882;2023-05-25T07:26:07;64144.13;;;-146.12;100.00
70302;BME280;57706;56.326;43.882;2023-05-25T07:28:33;64144.13;;;-146.12;100.00
70302;BME280;57706;56.326;43.882;2023-05-25T07:30:59;64144.13;;;-146.12;100.00
70302;BME280;57706;56.326;43.882;2023-05-25T07:33:25;64144.13;;;-146.12;100.00
70302;BME280;57706;56.326;43.882;2023-05-25T07:35:51;64144.13;;;-146.12;100.00
70302;BME280;57706;56.326;43.882;2023-05-25T07:38:17;64144.13;;;-146.12;100.00
70302;BME280;57706;56.326;43.882;2023-05-25T07:40:43;64144.13;;;-146.12;100.00
70302;BME280;57706;56.326;43.882;2023-05-25T07:43:12;64144.13;;;-146.12;100.00
70302;BME280;57706;56.326;43.882;2023-05-25T07:45:38;64144.13;;;-146.12;100.00
70302;BME280;57706;56.326;43.882;2023-05-25T07:48:04;64144.13;;;-146.12;100.00
70302;BME280;57706;56.326;43.882;2023-05-25T07:50:32;64144.13;;;-146.12;100.00
70302;BME280;57706;56.326;43.882;2023-05-25T07:52:58;64144.13;;;-146.12;100.00
70302;BME280;57706;56.326;43.882;2023-05-25T07:55:26;64144.13;;;-146.12;100.00
70302;BME280;57706;56.326;43.882;2023-05-25T07:57:52;64144.13;;;-146.12;100.00
70302;BME280;57706;56.326;43.882;2023-05-25T08:00:19;64144.13;;;-146.12;100.00
70302;BME280;57706;56.326;43.882;2023-05-25T08:02:44;64144.13;;;-146.12;100.00
70302;BME280;57706;56.326;43.882;2023-05-25T08:05:11;64144.13;;;-146.12;100.00
70302;BME280;57706;56.326;43.882;2023-05-25T08:07:37;64144.13;;;-146.12;100.00
70302;BME280;57706;56.326;43.882;2023-05-25T08:10:03;64144.13;;;-146.12;100.00
70302;BME280;57706;56.326;43.882;2023-05-25T08:12:32;64144.13;;;-146.12;100.00
70302;BME280;57706;56.326;43.882;2023-05-25T08:15:00;64144.13;;;-146.12;100.00
70302;BME280;57706;56.326;43.882;2023-05-25T08:17:26;100701.94;;;45.04;13.72
70302;BME280;57706;56.326;43.882;2023-05-25T08:19:53;100704.88;;;40.70;16.46
70302;BME280;57706;56.326;43.882;2023-05-25T08:22:23;100703.16;;;41.94;15.56
70302;BME280;57706;56.326;43.882;2023-05-25T08:24:48;64144.13;;;-146.12;100.00
70302;BME280;57706;56.326;43.882;2023-05-25T08:27:15;64144.13;;;-146.12;100.00
70302;BME280;57706;56.326;43.882;2023-05-25T08:29:41;64144.13;;;-146.12;100.00
70302;BME280;57706;56.326;43.882;2023-05-25T08:32:06;64144.13;;;-146.12;100.00
70302;BME280;57706;56.326;43.882;2023-05-25T08:34:32;64144.13;;;-146.12;100.00
70302;BME280;57706;56.326;43.882;2023-05-25T08:36:58;64144.13;;;-146.12;100.00
70302;BME280;57706;56.326;43.882;2023-05-25T08:39:24;64144.13;;;-146.12;100.00
70302;BME280;57706;56.326;43.882;2023-05-25T08:41:51;64144.13;;;-146.12;100.00
70302;BME280;57706;56.326;43.882;2023-05-25T08:44:18;64144.13;;;-146.12;100.00
70302;BME280;57706;56.326;43.882;2023-05-25T08:46:46;64144.13;;;-146.12;100.00
70302;BME280;57706;56.326;43.882;2023-05-25T08:49:14;64144.13;;;-146.12;100.00
70302;BME280;57706;56.326;43.882;2023-05-25T08:51:51;64144.13;;;-146.12;100.00
70302;BME280;57706;56.326;43.882;2023-05-25T08:54:23;64144.13;;;-146.12;100.00
70302;BME280;57706;56.326;43.882;2023-05-25T08:57:12;64144.13;;;-146.12;100.00
70302;BME280;57706;56.326;43.882;2023-05-25T08:59:48;64144.13;;;-146.12;100.00
70302;BME280;57706;56.326;43.882;2023-05-25T09:04:47;64144.13;;;-146.12;100.00
70302;BME280;57706;56.326;43.882;2023-05-25T09:07:13;64144.13;;;-146.12;100.00
70302;BME280;57706;56.326;43.882;2023-05-25T09:09:39;64144.13;;;-146.12;100.00
70302;BME280;57706;56.326;43.882;2023-05-25T09:12:06;64144.13;;;-146.12;100.00
70302;BME280;57706;56.326;43.882;2023-05-25T09:14:33;64144.13;;;-146.12;100.00
70302;BME280;57706;56.326;43.882;2023-05-25T09:17:00;64144.13;;;-146.12;100.00
70302;BME280;57706;56.326;43.882;2023-05-25T09:19:26;64144.13;;;-146.12;100.00
70302;BME280;57706;56.326;43.882;2023-05-25T09:21:51;64144.13;;;-146.12;100.00
70302;BME280;57706;56.326;43.882;2023-05-25T09:24:18;64144.13;;;-146.12;100.00
70302;BME280;57706;56.326;43.882;2023-05-25T09:26:44;64144.13;;;-146.12;100.00
70302;BME280;57706;56.326;43.882;2023-05-25T09:29:13;64144.13;;;-146.12;100.00
70302;BME280;57706;56.326;43.882;2023-05-25T09:31:39;64144.13;;;-146.12;100.00
70302;BME280;57706;56.326;43.882;2023-05-25T09:34:12;64144.13;;;-146.12;100.00
70302;BME280;57706;56.326;43.882;2023-05-25T09:36:40;64144.13;;;-146.12;100.00
70302;BME280;57706;56.326;43.882;2023-05-25T09:39:10;64144.13;;;-146.12;100.00
70302;BME280;57706;56.326;43.882;2023-05-25T09:41:40;64144.13;;;-146.12;100.00
70302;BME280;57706;56.326;43.882;2023-05-25T09:44:06;64144.13;;;-146.12;100.00
70302;BME280;57706;56.326;43.882;2023-05-25T09:46:33;64144.13;;;-146.12;100.00
70302;BME280;57706;56.326;43.882;2023-05-25T09:49:06;64144.13;;;-146.12;100.00
70302;BME280;57706;56.326;43.882;2023-05-25T09:51:34;64144.13;;;-146.12;100.00
70302;BME280;57706;56.326;43.882;2023-05-25T09:54:04;64144.13;;;-146.12;100.00
70302;BME280;57706;56.326;43.882;2023-05-25T09:56:33;64144.13;;;-146.12;100.00
70302;BME280;57706;56.326;43.882;2023-05-25T09:58:59;64144.13;;;-146.12;100.00
70302;BME280;57706;56.326;43.882;2023-05-25T10:01:25;64144.13;;;-146.12;100.00
70302;BME280;57706;56.326;43.882;2023-05-25T10:03:52;64144.13;;;-146.12;100.00
70302;BME280;57706;56.326;43.882;2023-05-25T10:06:22;64144.13;;;-146.12;100.00
70302;BME280;57706;56.326;43.882;2023-05-25T10:08:48;64144.13;;;-146.12;100.00
70302;BME280;57706;56.326;43.882;2023-05-25T10:11:15;64144.13;;;-146.12;100.00
70302;BME280;57706;56.326;43.882;2023-05-25T10:13:44;64144.13;;;-146.12;100.00
70302;BME280;57706;56.326;43.882;2023-05-25T10:16:13;64144.13;;;-146.12;100.00
70302;BME280;57706;56.326;43.882;2023-05-25T10:18:54;64144.13;;;-146.12;100.00
70302;BME280;57706;56.326;43.882;2023-05-25T10:21:24;64144.13;;;-146.12;100.00
70302;BME280;57706;56.326;43.882;2023-05-25T10:23:53;64144.13;;;-146.12;100.00
70302;BME280;57706;56.326;43.882;2023-05-25T10:26:25;64144.13;;;-146.12;100.00
70302;BME280;57706;56.326;43.882;2023-05-25T10:28:55;64144.13;;;-146.12;100.00
70302;BME280;57706;56.326;43.882;2023-05-25T10:31:26;64144.13;;;-146.12;100.00
70302;BME280;57706;56.326;43.882;2023-05-25T10:33:54;64144.13;;;-146.12;100.00
70302;BME280;57706;56.326;43.882;2023-05-25T10:36:22;64144.13;;;-146.12;100.00
70302;BME280;57706;56.326;43.882;2023-05-25T10:38:50;64144.13;;;-146.12;100.00
70302;BME280;57706;56.326;43.882;2023-05-25T10:41:18;64144.13;;;-146.12;100.00
70302;BME280;57706;56.326;43.882;2023-05-25T10:43:45;64144.13;;;-146.12;100.00
70302;BME280;57706;56.326;43.882;2023-05-25T10:46:12;64144.13;;;-146.12;100.00
70302;BME280;57706;56.326;43.882;2023-05-25T10:48:50;64144.13;;;-146.12;100.00
70302;BME280;57706;56.326;43.882;2023-05-25T10:51:20;64144.13;;;-146.12;100.00
70302;BME280;57706;56.326;43.882;2023-05-25T10:53:57;64144.13;;;-146.12;100.00
70302;BME280;57706;56.326;43.882;2023-05-25T10:56:24;64144.13;;;-146.12;100.00
70302;BME280;57706;56.326;43.882;2023-05-25T10:58:51;64144.13;;;-146.12;100.00
70302;BME280;57706;56.326;43.882;2023-05-25T11:01:18;64144.13;;;-146.12;100.00
70302;BME280;57706;56.326;43.882;2023-05-25T11:06:11;64144.13;;;-146.12;100.00
70302;BME280;57706;56.326;43.882;2023-05-25T11:08:54;64144.13;;;-146.12;100.00
70302;BME280;57706;56.326;43.882;2023-05-25T11:17:17;64144.13;;;-146.12;100.00
70302;BME280;57706;56.326;43.882;2023-05-25T11:19:44;64144.13;;;-146.12;100.00
70302;BME280;57706;56.326;43.882;2023-05-25T11:22:20;64144.13;;;-146.12;100.00
70302;BME280;57706;56.326;43.882;2023-05-25T11:24:47;64144.13;;;-146.12;100.00
70302;BME280;57706;56.326;43.882;2023-05-25T11:27:13;64144.13;;;-146.12;100.00
70302;BME280;57706;56.326;43.882;2023-05-25T11:29:39;64144.13;;;-146.12;100.00
70302;BME280;57706;56.326;43.882;2023-05-25T11:32:13;64144.13;;;-146.12;100.00
70302;BME280;57706;56.326;43.882;2023-05-25T11:34:39;64144.13;;;-146.12;100.00
70302;BME280;57706;56.326;43.882;2023-05-25T11:37:16;64144.13;;;-146.12;100.00
70302;BME280;57706;56.326;43.882;2023-05-25T11:39:49;64144.13;;;-146.12;100.00
70302;BME280;57706;56.326;43.882;2023-05-25T11:42:24;64144.13;;;-146.12;100.00
70302;BME280;57706;56.326;43.882;2023-05-25T11:44:50;64144.13;;;-146.12;100.00
70302;BME280;57706;56.326;43.882;2023-05-25T11:47:20;64144.13;;;-146.12;100.00
70302;BME280;57706;56.326;43.882;2023-05-25T11:49:48;64144.13;;;-146.12;100.00
70302;BME280;57706;56.326;43.882;2023-05-25T11:52:19;64144.13;;;-146.12;100.00
70302;BME280;57706;56.326;43.882;2023-05-25T11:54:46;64144.13;;;-146.12;100.00
70302;BME280;57706;56.326;43.882;2023-05-25T11:59:40;64144.13;;;-146.12;100.00
70302;BME280;57706;56.326;43.882;2023-05-25T12:02:12;64144.13;;;-146.12;100.00
70302;BME280;57706;56.326;43.882;2023-05-25T12:04:38;64144.13;;;-146.12;100.00
70302;BME280;57706;56.326;43.882;2023-05-25T12:07:06;64144.13;;;-146.12;100.00
70302;BME280;57706;56.326;43.882;2023-05-25T12:09:33;64144.13;;;-146.12;100.00
70302;BME280;57706;56.326;43.882;2023-05-25T12:12:04;64144.13;;;-146.12;100.00
70302;BME280;57706;56.326;43.882;2023-05-25T12:14:30;64144.13;;;-146.12;100.00
70302;BME280;57706;56.326;43.882;2023-05-25T12:16:59;64144.13;;;-146.12;100.00
70302;BME280;57706;56.326;43.882;2023-05-25T12:19:25;64144.13;;;-146.12;100.00
70302;BME280;57706;56.326;43.882;2023-05-25T12:21:51;64144.13;;;-146.12;100.00
70302;BME280;57706;56.326;43.882;2023-05-25T12:24:18;64144.13;;;-146.12;100.00
70302;BME280;57706;56.326;43.882;2023-05-25T12:26:51;64144.13;;;-146.12;100.00
70302;BME280;57706;56.326;43.882;2023-05-25T12:29:24;64144.13;;;-146.12;100.00
70302;BME280;57706;56.326;43.882;2023-05-25T12:31:50;64144.13;;;-146.12;100.00
70302;BME280;57706;56.326;43.882;2023-05-25T12:34:18;64144.13;;;-146.12;100.00
70302;BME280;57706;56.326;43.882;2023-05-25T12:39:30;64144.13;;;-146.12;100.00
70302;BME280;57706;56.326;43.882;2023-05-25T12:41:58;64144.13;;;-146.12;100.00
70302;BME280;57706;56.326;43.882;2023-05-25T12:44:34;64144.13;;;-146.12;100.00